sensor_id;sensor_type;location;lat;lon;timestamp;P1;durP1;ratioP1;P2;durP2;ratioP2
18206;SDS011;9229;52.354;20.886;2023-02-01T00:04:15;38.38;;;14.68;;
18206;SDS011;9229;52.354;20.886;2023-02-01T00:09:17;52.08;;;18.65;;
18206;SDS011;9229;52.354;20.886;2023-02-01T00:14:19;14.25;;;7.95;;
18206;SDS011;9229;52.354;20.886;2023-02-01T00:19:24;13.52;;;8.25;;
18206;SDS011;9229;52.354;20.886;2023-02-01T00:24:36;10.82;;;7.55;;
18206;SDS011;9229;52.354;20.886;2023-02-01T00:29:39;10.23;;;6.25;;
18206;SDS011;9229;52.354;20.886;2023-02-01T00:34:43;7.75;;;5.93;;
18206;SDS011;9229;52.354;20.886;2023-02-01T00:39:45;8.00;;;6.85;;
18206;SDS011;9229;52.354;20.886;2023-02-01T00:44:48;5.88;;;4.32;;
18206;SDS011;9229;52.354;20.886;2023-02-01T00:49:51;10.68;;;2.83;;
18206;SDS011;9229;52.354;20.886;2023-02-01T00:54:53;3.42;;;3.13;;
18206;SDS011;9229;52.354;20.886;2023-02-01T00:59:55;3.60;;;3.00;;
18206;SDS011;9229;52.354;20.886;2023-02-01T01:05:01;5.07;;;2.85;;
18206;SDS011;9229;52.354;20.886;2023-02-01T01:10:03;3.42;;;2.40;;
18206;SDS011;9229;52.354;20.886;2023-02-01T01:15:07;2.67;;;2.47;;
18206;SDS011;9229;52.354;20.886;2023-02-01T01:20:12;4.13;;;2.28;;
18206;SDS011;9229;52.354;20.886;2023-02-01T01:25:14;2.50;;;2.30;;
18206;SDS011;9229;52.354;20.886;2023-02-01T01:30:16;2.83;;;2.22;;
18206;SDS011;9229;52.354;20.886;2023-02-01T01:35:20;2.55;;;2.22;;
18206;SDS011;9229;52.354;20.886;2023-02-01T01:40:22;7.10;;;2.40;;
18206;SDS011;9229;52.354;20.886;2023-02-01T01:45:25;2.33;;;2.17;;
18206;SDS011;9229;52.354;20.886;2023-02-01T01:50:33;5.47;;;2.88;;
18206;SDS011;9229;52.354;20.886;2023-02-01T01:55:39;7.00;;;2.22;;
18206;SDS011;9229;52.354;20.886;2023-02-01T02:00:44;4.45;;;2.75;;
18206;SDS011;9229;52.354;20.886;2023-02-01T02:05:49;5.00;;;2.20;;
18206;SDS011;9229;52.354;20.886;2023-02-01T02:10:52;5.80;;;2.63;;
18206;SDS011;9229;52.354;20.886;2023-02-01T02:16:04;4.45;;;3.25;;
18206;SDS011;9229;52.354;20.886;2023-02-01T02:21:18;9.57;;;3.22;;
18206;SDS011;9229;52.354;20.886;2023-02-01T02:32:08;9.68;;;2.58;;
18206;SDS011;9229;52.354;20.886;2023-02-01T02:37:53;4.10;;;2.75;;
18206;SDS011;9229;52.354;20.886;2023-02-01T02:43:03;2.90;;;2.42;;
18206;SDS011;9229;52.354;20.886;2023-02-01T02:48:29;4.20;;;2.65;;
18206;SDS011;9229;52.354;20.886;2023-02-01T02:53:37;3.47;;;3.25;;
18206;SDS011;9229;52.354;20.886;2023-02-01T02:59:19;9.13;;;3.10;;
18206;SDS011;9229;52.354;20.886;2023-02-01T03:04:43;8.85;;;2.85;;
18206;SDS011;9229;52.354;20.886;2023-02-01T03:09:47;4.80;;;2.75;;
18206;SDS011;9229;52.354;20.886;2023-02-01T03:14:51;9.27;;;2.78;;
18206;SDS011;9229;52.354;20.886;2023-02-01T03:19:58;4.00;;;2.50;;
18206;SDS011;9229;52.354;20.886;2023-02-01T03:25:04;8.77;;;2.80;;
18206;SDS011;9229;52.354;20.886;2023-02-01T03:30:14;11.60;;;3.17;;
18206;SDS011;9229;52.354;20.886;2023-02-01T03:35:20;5.15;;;2.25;;
18206;SDS011;9229;52.354;20.886;2023-02-01T03:40:29;14.60;;;2.83;;
18206;SDS011;9229;52.354;20.886;2023-02-01T03:45:36;2.25;;;2.05;;
18206;SDS011;9229;52.354;20.886;2023-02-01T03:50:43;8.43;;;2.88;;
18206;SDS011;9229;52.354;20.886;2023-02-01T03:55:52;10.43;;;2.80;;
18206;SDS011;9229;52.354;20.886;2023-02-01T04:00:56;6.93;;;2.80;;
18206;SDS011;9229;52.354;20.886;2023-02-01T04:06:00;6.88;;;2.67;;
18206;SDS011;9229;52.354;20.886;2023-02-01T04:11:05;10.82;;;2.50;;
18206;SDS011;9229;52.354;20.886;2023-02-01T04:16:07;7.97;;;2.40;;
18206;SDS011;9229;52.354;20.886;2023-02-01T04:21:09;5.30;;;2.80;;
18206;SDS011;9229;52.354;20.886;2023-02-01T04:26:13;13.35;;;3.05;;
18206;SDS011;9229;52.354;20.886;2023-02-01T04:31:16;6.90;;;2.78;;
18206;SDS011;9229;52.354;20.886;2023-02-01T04:36:25;7.57;;;2.58;;
18206;SDS011;9229;52.354;20.886;2023-02-01T04:41:28;6.32;;;2.75;;
18206;SDS011;9229;52.354;20.886;2023-02-01T04:46:30;7.53;;;2.85;;
18206;SDS011;9229;52.354;20.886;2023-02-01T04:51:33;8.82;;;3.13;;
18206;SDS011;9229;52.354;20.886;2023-02-01T04:56:36;6.30;;;2.83;;
18206;SDS011;9229;52.354;20.886;2023-02-01T05:01:38;4.28;;;2.33;;
18206;SDS011;9229;52.354;20.886;2023-02-01T05:06:40;5.82;;;2.40;;
18206;SDS011;9229;52.354;20.886;2023-02-01T05:11:43;7.50;;;3.15;;
18206;SDS011;9229;52.354;20.886;2023-02-01T05:17:03;13.65;;;2.65;;
18206;SDS011;9229;52.354;20.886;2023-02-01T05:22:05;11.57;;;2.83;;
18206;SDS011;9229;52.354;20.886;2023-02-01T05:27:08;5.32;;;2.45;;
18206;SDS011;9229;52.354;20.886;2023-02-01T05:32:11;12.02;;;4.80;;
18206;SDS011;9229;52.354;20.886;2023-02-01T05:37:13;11.15;;;3.25;;
18206;SDS011;9229;52.354;20.886;2023-02-01T05:42:16;8.70;;;2.40;;
18206;SDS011;9229;52.354;20.886;2023-02-01T05:47:20;11.75;;;3.47;;
18206;SDS011;9229;52.354;20.886;2023-02-01T05:52:22;14.48;;;2.92;;
18206;SDS011;9229;52.354;20.886;2023-02-01T05:57:25;9.73;;;4.20;;
18206;SDS011;9229;52.354;20.886;2023-02-01T06:02:27;8.07;;;3.63;;
18206;SDS011;9229;52.354;20.886;2023-02-01T06:07:29;7.53;;;3.03;;
18206;SDS011;9229;52.354;20.886;2023-02-01T06:12:34;7.82;;;4.15;;
18206;SDS011;9229;52.354;20.886;2023-02-01T06:17:36;10.70;;;4.07;;
18206;SDS011;9229;52.354;20.886;2023-02-01T06:22:38;16.65;;;3.20;;
18206;SDS011;9229;52.354;20.886;2023-02-01T06:27:43;8.00;;;3.03;;
18206;SDS011;9229;52.354;20.886;2023-02-01T06:32:49;10.57;;;3.85;;
18206;SDS011;9229;52.354;20.886;2023-02-01T06:37:55;8.05;;;3.55;;
18206;SDS011;9229;52.354;20.886;2023-02-01T06:42:59;10.23;;;3.40;;
18206;SDS011;9229;52.354;20.886;2023-02-01T06:48:01;12.88;;;3.53;;
18206;SDS011;9229;52.354;20.886;2023-02-01T06:53:04;12.73;;;3.28;;
18206;SDS011;9229;52.354;20.886;2023-02-01T06:58:08;14.20;;;3.33;;
18206;SDS011;9229;52.354;20.886;2023-02-01T07:03:10;13.88;;;2.90;;
18206;SDS011;9229;52.354;20.886;2023-02-01T07:08:12;15.90;;;3.60;;
18206;SDS011;9229;52.354;20.886;2023-02-01T07:13:17;13.93;;;3.85;;
18206;SDS011;9229;52.354;20.886;2023-02-01T07:18:19;11.20;;;3.20;;
18206;SDS011;9229;52.354;20.886;2023-02-01T07:23:21;7.72;;;3.30;;
18206;SDS011;9229;52.354;20.886;2023-02-01T07:28:25;6.65;;;3.17;;
18206;SDS011;9229;52.354;20.886;2023-02-01T07:33:29;9.68;;;5.07;;
18206;SDS011;9229;52.354;20.886;2023-02-01T07:38:31;8.18;;;3.95;;
18206;SDS011;9229;52.354;20.886;2023-02-01T07:43:35;13.55;;;3.65;;
18206;SDS011;9229;52.354;20.886;2023-02-01T07:48:37;18.23;;;3.55;;
18206;SDS011;9229;52.354;20.886;2023-02-01T07:53:40;18.95;;;4.85;;
18206;SDS011;9229;52.354;20.886;2023-02-01T07:58:46;16.05;;;3.70;;
18206;SDS011;9229;52.354;20.886;2023-02-01T08:03:49;7.90;;;3.15;;
18206;SDS011;9229;52.354;20.886;2023-02-01T08:08:52;10.82;;;3.53;;
18206;SDS011;9229;52.354;20.886;2023-02-01T08:13:57;8.95;;;3.75;;
18206;SDS011;9229;52.354;20.886;2023-02-01T08:18:59;10.50;;;3.60;;
18206;SDS011;9229;52.354;20.886;2023-02-01T08:24:02;11.85;;;3.63;;
18206;SDS011;9229;52.354;20.886;2023-02-01T08:29:07;11.40;;;3.65;;
18206;SDS011;9229;52.354;20.886;2023-02-01T08:34:10;14.98;;;3.92;;
18206;SDS011;9229;52.354;20.886;2023-02-01T08:39:13;10.05;;;3.47;;
18206;SDS011;9229;52.354;20.886;2023-02-01T08:44:17;8.88;;;3.65;;
18206;SDS011;9229;52.354;20.886;2023-02-01T08:49:19;11.80;;;3.15;;
18206;SDS011;9229;52.354;20.886;2023-02-01T08:54:22;9.43;;;3.85;;
18206;SDS011;9229;52.354;20.886;2023-02-01T08:59:25;5.57;;;3.33;;
18206;SDS011;9229;52.354;20.886;2023-02-01T09:04:27;9.13;;;3.03;;
18206;SDS011;9229;52.354;20.886;2023-02-01T09:09:30;16.13;;;4.38;;
18206;SDS011;9229;52.354;20.886;2023-02-01T09:14:33;7.68;;;3.40;;
18206;SDS011;9229;52.354;20.886;2023-02-01T09:19:39;6.65;;;3.53;;
18206;SDS011;9229;52.354;20.886;2023-02-01T09:24:41;13.63;;;3.80;;
18206;SDS011;9229;52.354;20.886;2023-02-01T09:29:47;11.77;;;3.70;;
18206;SDS011;9229;52.354;20.886;2023-02-01T09:34:52;11.57;;;3.72;;
18206;SDS011;9229;52.354;20.886;2023-02-01T09:39:54;6.70;;;3.58;;
18206;SDS011;9229;52.354;20.886;2023-02-01T09:45:19;9.23;;;3.40;;
18206;SDS011;9229;52.354;20.886;2023-02-01T09:50:28;9.38;;;3.40;;
18206;SDS011;9229;52.354;20.886;2023-02-01T09:55:36;14.65;;;3.35;;
18206;SDS011;9229;52.354;20.886;2023-02-01T10:00:45;12.23;;;4.15;;
18206;SDS011;9229;52.354;20.886;2023-02-01T10:05:59;13.63;;;4.82;;
18206;SDS011;9229;52.354;20.886;2023-02-01T10:11:18;8.80;;;3.33;;
18206;SDS011;9229;52.354;20.886;2023-02-01T10:16:50;20.85;;;4.40;;
18206;SDS011;9229;52.354;20.886;2023-02-01T10:21:59;10.13;;;3.88;;
18206;SDS011;9229;52.354;20.886;2023-02-01T10:27:11;12.18;;;3.70;;
18206;SDS011;9229;52.354;20.886;2023-02-01T10:32:21;13.50;;;4.50;;
18206;SDS011;9229;52.354;20.886;2023-02-01T10:37:29;4.97;;;3.45;;
18206;SDS011;9229;52.354;20.886;2023-02-01T10:42:32;10.88;;;3.35;;
18206;SDS011;9229;52.354;20.886;2023-02-01T10:47:36;11.75;;;3.92;;
18206;SDS011;9229;52.354;20.886;2023-02-01T10:52:38;13.40;;;3.97;;
18206;SDS011;9229;52.354;20.886;2023-02-01T10:57:48;10.10;;;3.90;;
18206;SDS011;9229;52.354;20.886;2023-02-01T11:02:59;7.22;;;3.63;;
18206;SDS011;9229;52.354;20.886;2023-02-01T11:08:01;15.88;;;4.50;;
18206;SDS011;9229;52.354;20.886;2023-02-01T11:13:05;16.73;;;4.15;;
18206;SDS011;9229;52.354;20.886;2023-02-01T11:18:18;11.82;;;3.97;;
18206;SDS011;9229;52.354;20.886;2023-02-01T11:23:24;7.78;;;3.45;;
18206;SDS011;9229;52.354;20.886;2023-02-01T11:28:29;13.15;;;3.83;;
18206;SDS011;9229;52.354;20.886;2023-02-01T11:33:35;10.15;;;3.55;;
18206;SDS011;9229;52.354;20.886;2023-02-01T11:38:51;10.77;;;3.70;;
18206;SDS011;9229;52.354;20.886;2023-02-01T11:43:55;4.93;;;3.85;;
18206;SDS011;9229;52.354;20.886;2023-02-01T11:49:14;10.43;;;3.53;;
18206;SDS011;9229;52.354;20.886;2023-02-01T11:54:29;6.10;;;3.15;;
18206;SDS011;9229;52.354;20.886;2023-02-01T11:59:49;14.70;;;4.55;;
18206;SDS011;9229;52.354;20.886;2023-02-01T12:05:31;15.93;;;4.25;;
18206;SDS011;9229;52.354;20.886;2023-02-01T12:10:46;12.20;;;4.07;;
18206;SDS011;9229;52.354;20.886;2023-02-01T12:16:07;13.02;;;4.15;;
18206;SDS011;9229;52.354;20.886;2023-02-01T12:21:22;5.68;;;3.85;;
18206;SDS011;9229;52.354;20.886;2023-02-01T12:26:47;11.85;;;3.90;;
18206;SDS011;9229;52.354;20.886;2023-02-01T12:32:02;7.35;;;4.22;;
18206;SDS011;9229;52.354;20.886;2023-02-01T12:37:17;8.65;;;3.53;;
18206;SDS011;9229;52.354;20.886;2023-02-01T12:42:29;17.48;;;5.68;;
18206;SDS011;9229;52.354;20.886;2023-02-01T12:47:37;7.97;;;3.75;;
18206;SDS011;9229;52.354;20.886;2023-02-01T12:52:46;14.82;;;3.80;;
18206;SDS011;9229;52.354;20.886;2023-02-01T12:58:01;9.25;;;4.07;;
18206;SDS011;9229;52.354;20.886;2023-02-01T13:03:10;7.97;;;4.10;;
18206;SDS011;9229;52.354;20.886;2023-02-01T13:08:23;12.80;;;4.07;;
18206;SDS011;9229;52.354;20.886;2023-02-01T13:13:28;7.45;;;4.18;;
18206;SDS011;9229;52.354;20.886;2023-02-01T13:18:41;5.82;;;3.20;;
18206;SDS011;9229;52.354;20.886;2023-02-01T13:23:50;7.82;;;3.40;;
18206;SDS011;9229;52.354;20.886;2023-02-01T13:28:53;7.60;;;3.45;;
18206;SDS011;9229;52.354;20.886;2023-02-01T13:39:41;5.90;;;3.38;;
18206;SDS011;9229;52.354;20.886;2023-02-01T13:44:50;7.82;;;3.40;;
18206;SDS011;9229;52.354;20.886;2023-02-01T13:49:59;4.50;;;3.05;;
18206;SDS011;9229;52.354;20.886;2023-02-01T14:00:35;7.65;;;3.10;;
18206;SDS011;9229;52.354;20.886;2023-02-01T14:11:06;7.90;;;3.92;;
18206;SDS011;9229;52.354;20.886;2023-02-01T14:16:29;6.22;;;3.25;;
18206;SDS011;9229;52.354;20.886;2023-02-01T14:21:31;7.97;;;3.63;;
18206;SDS011;9229;52.354;20.886;2023-02-01T14:26:44;8.85;;;3.30;;
18206;SDS011;9229;52.354;20.886;2023-02-01T14:31:50;4.03;;;3.30;;
18206;SDS011;9229;52.354;20.886;2023-02-01T14:36:57;13.20;;;4.43;;
18206;SDS011;9229;52.354;20.886;2023-02-01T14:42:14;10.70;;;4.45;;
18206;SDS011;9229;52.354;20.886;2023-02-01T14:47:33;5.80;;;3.20;;
18206;SDS011;9229;52.354;20.886;2023-02-01T14:52:36;7.68;;;3.95;;
18206;SDS011;9229;52.354;20.886;2023-02-01T14:57:52;5.82;;;3.50;;
18206;SDS011;9229;52.354;20.886;2023-02-01T15:03:15;8.82;;;4.57;;
18206;SDS011;9229;52.354;20.886;2023-02-01T15:08:33;6.88;;;3.22;;
18206;SDS011;9229;52.354;20.886;2023-02-01T15:13:47;5.38;;;2.90;;
18206;SDS011;9229;52.354;20.886;2023-02-01T15:18:50;4.47;;;3.20;;
18206;SDS011;9229;52.354;20.886;2023-02-01T15:24:11;5.32;;;3.72;;
18206;SDS011;9229;52.354;20.886;2023-02-01T15:29:23;3.83;;;2.85;;
18206;SDS011;9229;52.354;20.886;2023-02-01T15:40:14;6.45;;;3.42;;
18206;SDS011;9229;52.354;20.886;2023-02-01T15:45:24;9.30;;;4.53;;
18206;SDS011;9229;52.354;20.886;2023-02-01T15:50:28;8.40;;;4.00;;
18206;SDS011;9229;52.354;20.886;2023-02-01T15:55:34;5.03;;;3.70;;
18206;SDS011;9229;52.354;20.886;2023-02-01T16:00:43;5.93;;;4.38;;
18206;SDS011;9229;52.354;20.886;2023-02-01T16:05:53;5.00;;;3.42;;
18206;SDS011;9229;52.354;20.886;2023-02-01T16:11:00;6.45;;;4.43;;
18206;SDS011;9229;52.354;20.886;2023-02-01T16:16:04;6.30;;;3.97;;
18206;SDS011;9229;52.354;20.886;2023-02-01T16:21:13;6.82;;;4.22;;
18206;SDS011;9229;52.354;20.886;2023-02-01T16:26:19;4.57;;;4.10;;
18206;SDS011;9229;52.354;20.886;2023-02-01T16:31:24;5.25;;;4.18;;
18206;SDS011;9229;52.354;20.886;2023-02-01T16:36:29;6.78;;;4.18;;
18206;SDS011;9229;52.354;20.886;2023-02-01T16:41:31;6.07;;;4.10;;
18206;SDS011;9229;52.354;20.886;2023-02-01T16:46:35;8.70;;;4.20;;
18206;SDS011;9229;52.354;20.886;2023-02-01T16:51:42;6.60;;;4.10;;
18206;SDS011;9229;52.354;20.886;2023-02-01T16:56:44;10.45;;;4.75;;
18206;SDS011;9229;52.354;20.886;2023-02-01T17:01:48;9.32;;;5.25;;
18206;SDS011;9229;52.354;20.886;2023-02-01T17:06:52;4.80;;;4.20;;
18206;SDS011;9229;52.354;20.886;2023-02-01T17:11:54;10.32;;;4.68;;
18206;SDS011;9229;52.354;20.886;2023-02-01T17:16:58;11.00;;;5.80;;
18206;SDS011;9229;52.354;20.886;2023-02-01T17:22:01;7.80;;;5.03;;
18206;SDS011;9229;52.354;20.886;2023-02-01T17:27:03;9.95;;;5.07;;
18206;SDS011;9229;52.354;20.886;2023-02-01T17:38:20;9.48;;;4.57;;
18206;SDS011;9229;52.354;20.886;2023-02-01T17:43:26;9.57;;;4.43;;
18206;SDS011;9229;52.354;20.886;2023-02-01T17:48:28;10.32;;;6.40;;
18206;SDS011;9229;52.354;20.886;2023-02-01T17:53:31;13.90;;;5.90;;
18206;SDS011;9229;52.354;20.886;2023-02-01T17:58:34;6.32;;;4.72;;
18206;SDS011;9229;52.354;20.886;2023-02-01T18:03:36;6.32;;;5.47;;
18206;SDS011;9229;52.354;20.886;2023-02-01T18:08:40;7.82;;;5.20;;
18206;SDS011;9229;52.354;20.886;2023-02-01T18:13:43;12.65;;;5.95;;
18206;SDS011;9229;52.354;20.886;2023-02-01T18:18:46;11.27;;;5.90;;
18206;SDS011;9229;52.354;20.886;2023-02-01T18:23:50;9.82;;;5.55;;
18206;SDS011;9229;52.354;20.886;2023-02-01T18:28:52;14.85;;;6.07;;
18206;SDS011;9229;52.354;20.886;2023-02-01T18:33:54;15.35;;;5.68;;
18206;SDS011;9229;52.354;20.886;2023-02-01T18:38:59;10.55;;;5.20;;
18206;SDS011;9229;52.354;20.886;2023-02-01T18:44:01;12.60;;;6.05;;
18206;SDS011;9229;52.354;20.886;2023-02-01T18:49:03;13.38;;;5.75;;
18206;SDS011;9229;52.354;20.886;2023-02-01T18:54:08;10.85;;;5.95;;
18206;SDS011;9229;52.354;20.886;2023-02-01T18:59:11;10.52;;;5.30;;
18206;SDS011;9229;52.354;20.886;2023-02-01T19:04:13;14.48;;;5.47;;
18206;SDS011;9229;52.354;20.886;2023-02-01T19:09:17;9.52;;;5.30;;
18206;SDS011;9229;52.354;20.886;2023-02-01T19:14:20;10.95;;;5.55;;
18206;SDS011;9229;52.354;20.886;2023-02-01T19:19:22;12.73;;;5.45;;
18206;SDS011;9229;52.354;20.886;2023-02-01T19:24:26;10.52;;;5.82;;
18206;SDS011;9229;52.354;20.886;2023-02-01T19:29:29;18.05;;;6.40;;
18206;SDS011;9229;52.354;20.886;2023-02-01T19:34:32;11.65;;;5.38;;
18206;SDS011;9229;52.354;20.886;2023-02-01T19:39:36;14.35;;;6.18;;
18206;SDS011;9229;52.354;20.886;2023-02-01T19:44:39;10.07;;;5.55;;
18206;SDS011;9229;52.354;20.886;2023-02-01T19:49:44;17.00;;;6.43;;
18206;SDS011;9229;52.354;20.886;2023-02-01T19:54:47;9.30;;;5.65;;
18206;SDS011;9229;52.354;20.886;2023-02-01T19:59:52;8.75;;;5.32;;
18206;SDS011;9229;52.354;20.886;2023-02-01T20:04:54;16.42;;;5.57;;
18206;SDS011;9229;52.354;20.886;2023-02-01T20:10:00;10.95;;;6.38;;
18206;SDS011;9229;52.354;20.886;2023-02-01T20:15:02;6.07;;;5.03;;
18206;SDS011;9229;52.354;20.886;2023-02-01T20:20:08;19.67;;;5.75;;
18206;SDS011;9229;52.354;20.886;2023-02-01T20:25:21;5.30;;;4.72;;
18206;SDS011;9229;52.354;20.886;2023-02-01T20:30:23;15.65;;;6.97;;
18206;SDS011;9229;52.354;20.886;2023-02-01T20:35:28;16.48;;;6.00;;
18206;SDS011;9229;52.354;20.886;2023-02-01T20:40:39;11.15;;;6.47;;
18206;SDS011;9229;52.354;20.886;2023-02-01T20:45:43;7.72;;;5.32;;
18206;SDS011;9229;52.354;20.886;2023-02-01T20:50:45;12.02;;;5.57;;
18206;SDS011;9229;52.354;20.886;2023-02-01T20:55:51;12.75;;;6.65;;
18206;SDS011;9229;52.354;20.886;2023-02-01T21:00:53;14.40;;;6.60;;
18206;SDS011;9229;52.354;20.886;2023-02-01T21:05:56;13.13;;;6.05;;
18206;SDS011;9229;52.354;20.886;2023-02-01T21:11:03;19.13;;;6.68;;
18206;SDS011;9229;52.354;20.886;2023-02-01T21:16:08;18.40;;;6.90;;
18206;SDS011;9229;52.354;20.886;2023-02-01T21:21:12;13.38;;;6.38;;
18206;SDS011;9229;52.354;20.886;2023-02-01T21:26:17;11.43;;;5.93;;
18206;SDS011;9229;52.354;20.886;2023-02-01T21:31:21;12.60;;;5.88;;
18206;SDS011;9229;52.354;20.886;2023-02-01T21:36:24;11.52;;;5.70;;
18206;SDS011;9229;52.354;20.886;2023-02-01T21:41:32;15.77;;;5.90;;
18206;SDS011;9229;52.354;20.886;2023-02-01T21:46:56;12.85;;;6.20;;
18206;SDS011;9229;52.354;20.886;2023-02-01T21:51:58;16.50;;;6.15;;
18206;SDS011;9229;52.354;20.886;2023-02-01T21:57:01;12.20;;;6.07;;
18206;SDS011;9229;52.354;20.886;2023-02-01T22:02:04;9.77;;;6.25;;
18206;SDS011;9229;52.354;20.886;2023-02-01T22:07:07;14.60;;;5.75;;
18206;SDS011;9229;52.354;20.886;2023-02-01T22:12:11;11.40;;;5.50;;
18206;SDS011;9229;52.354;20.886;2023-02-01T22:17:15;11.25;;;5.55;;
18206;SDS011;9229;52.354;20.886;2023-02-01T22:22:17;11.10;;;5.60;;
18206;SDS011;9229;52.354;20.886;2023-02-01T22:27:24;19.60;;;7.40;;
18206;SDS011;9229;52.354;20.886;2023-02-01T22:32:26;10.65;;;6.07;;
18206;SDS011;9229;52.354;20.886;2023-02-01T22:37:30;13.05;;;7.00;;
18206;SDS011;9229;52.354;20.886;2023-02-01T22:42:33;12.90;;;5.85;;
18206;SDS011;9229;52.354;20.886;2023-02-01T22:47:35;10.55;;;6.53;;
18206;SDS011;9229;52.354;20.886;2023-02-01T22:52:37;11.05;;;6.78;;
18206;SDS011;9229;52.354;20.886;2023-02-01T22:57:41;11.73;;;7.15;;
18206;SDS011;9229;52.354;20.886;2023-02-01T23:02:43;6.45;;;5.53;;
18206;SDS011;9229;52.354;20.886;2023-02-01T23:07:45;11.75;;;6.50;;
18206;SDS011;9229;52.354;20.886;2023-02-01T23:12:49;7.50;;;5.43;;
18206;SDS011;9229;52.354;20.886;2023-02-01T23:17:51;7.15;;;5.95;;
18206;SDS011;9229;52.354;20.886;2023-02-01T23:22:53;13.43;;;6.47;;
18206;SDS011;9229;52.354;20.886;2023-02-01T23:27:56;9.27;;;6.57;;
18206;SDS011;9229;52.354;20.886;2023-02-01T23:32:58;8.50;;;5.20;;
18206;SDS011;9229;52.354;20.886;2023-02-01T23:38:00;7.95;;;6.50;;
18206;SDS011;9229;52.354;20.886;2023-02-01T23:43:03;7.82;;;6.93;;
18206;SDS011;9229;52.354;20.886;2023-02-01T23:48:23;8.13;;;6.20;;
18206;SDS011;9229;52.354;20.886;2023-02-01T23:53:28;9.15;;;6.18;;
18206;SDS011;9229;52.354;20.886;2023-02-01T23:58:32;9.07;;;7.20;;
